createdAt,value
2023-01-27T00:00:07.670Z,91.89
2023-01-27T00:01:39.634Z,91.72
2023-01-27T00:03:12.320Z,91.62
2023-01-27T00:04:44.276Z,91.86
2023-01-27T00:07:50.152Z,91.60
2023-01-27T00:09:22.074Z,91.46
2023-01-27T00:11:17.728Z,91.60
2023-01-27T00:13:08.165Z,91.63
2023-01-27T00:14:40.023Z,91.92
2023-01-27T00:16:11.890Z,91.91
2023-01-27T00:17:43.900Z,91.81
2023-01-27T00:19:20.178Z,91.81
2023-01-27T00:21:10.914Z,91.83
2023-01-27T00:23:01.469Z,91.73
2023-01-27T00:24:36.406Z,91.85
2023-01-27T00:26:09.219Z,91.87
2023-01-27T00:27:41.039Z,91.92
2023-01-27T00:29:12.891Z,92.12
2023-01-27T00:30:44.897Z,91.87
2023-01-27T00:32:35.002Z,91.54
2023-01-27T00:34:09.756Z,91.51
2023-01-27T00:35:41.792Z,91.71
2023-01-27T00:37:13.631Z,91.70
2023-01-27T00:38:45.523Z,91.79
2023-01-27T00:40:17.512Z,91.73
2023-01-27T00:41:49.375Z,91.82
2023-01-27T00:43:21.200Z,91.66
2023-01-27T00:45:11.537Z,91.60
2023-01-27T00:46:43.419Z,91.50
2023-01-27T00:48:15.280Z,91.45
2023-01-27T00:49:47.333Z,91.70
2023-01-27T00:53:02.739Z,91.74
2023-01-27T00:54:37.280Z,91.88
2023-01-27T00:56:09.308Z,91.93
2023-01-27T00:57:41.087Z,91.91
2023-01-27T00:59:12.966Z,91.72
2023-01-27T01:00:44.967Z,91.77
2023-01-27T01:02:16.992Z,91.73
2023-01-27T01:03:49.255Z,91.61
2023-01-27T01:05:21.130Z,91.66
2023-01-27T01:06:53.000Z,91.85
2023-01-27T01:08:25.129Z,91.81
2023-01-27T01:09:57.010Z,91.96
2023-01-27T01:11:29.073Z,92.04
2023-01-27T01:13:00.973Z,91.94
2023-01-27T01:14:32.936Z,91.89
2023-01-27T01:16:06.001Z,91.78
2023-01-27T01:17:37.974Z,91.60
2023-01-27T01:19:09.804Z,91.68
2023-01-27T01:20:44.795Z,91.73
2023-01-27T01:22:16.674Z,91.72
2023-01-27T01:23:48.741Z,91.58
2023-01-27T01:25:20.788Z,91.62
2023-01-27T01:26:52.699Z,91.70
2023-01-27T01:28:24.764Z,91.72
2023-01-27T01:29:56.535Z,91.76
2023-01-27T01:31:28.376Z,91.97
2023-01-27T01:33:00.270Z,91.89
2023-01-27T01:34:32.106Z,91.98
2023-01-27T01:36:07.205Z,91.89
2023-01-27T01:37:38.989Z,91.84
2023-01-27T01:39:10.828Z,91.86
2023-01-27T01:40:43.216Z,91.89
2023-01-27T01:42:15.070Z,91.83
2023-01-27T01:43:47.065Z,91.57
2023-01-27T01:45:34.137Z,91.64
2023-01-27T01:47:05.938Z,91.74
2023-01-27T01:48:58.052Z,91.85
2023-01-27T01:50:30.373Z,91.88
2023-01-27T01:52:07.938Z,91.62
2023-01-27T01:53:44.648Z,91.67
2023-01-27T01:55:16.750Z,91.66
2023-01-27T01:56:50.672Z,91.64
2023-01-27T01:58:22.604Z,91.58
2023-01-27T01:59:54.955Z,91.53
2023-01-27T02:01:27.955Z,91.35
2023-01-27T02:02:59.836Z,91.43
2023-01-27T02:04:36.107Z,91.50
2023-01-27T02:06:07.898Z,91.43
2023-01-27T02:07:58.622Z,91.42
2023-01-27T02:09:30.858Z,91.61
2023-01-27T02:11:02.762Z,91.48
2023-01-27T02:12:34.595Z,91.68
2023-01-27T02:14:06.409Z,91.75
2023-01-27T02:15:38.460Z,91.65
2023-01-27T02:17:10.669Z,91.47
2023-01-27T02:18:42.861Z,91.52
2023-01-27T02:20:20.486Z,91.37
2023-01-27T02:21:52.365Z,91.48
2023-01-27T02:23:29.992Z,91.42
2023-01-27T02:25:04.087Z,91.36
2023-01-27T02:26:37.004Z,91.53
2023-01-27T02:28:09.049Z,91.55
2023-01-27T02:29:40.873Z,91.73
2023-01-27T02:31:12.878Z,91.74
2023-01-27T02:32:44.767Z,91.93
2023-01-27T02:34:17.545Z,92.01
2023-01-27T02:35:59.045Z,91.86
2023-01-27T02:37:30.894Z,91.85
2023-01-27T02:39:03.298Z,91.87
2023-01-27T02:40:35.145Z,91.93
2023-01-27T02:42:06.969Z,91.84
2023-01-27T02:45:14.369Z,92.01
2023-01-27T02:46:46.620Z,91.95
2023-01-27T02:48:18.532Z,91.91
2023-01-27T02:49:50.353Z,92.01
2023-01-27T02:51:22.345Z,92.00
2023-01-27T02:52:54.284Z,92.10
2023-01-27T02:54:26.094Z,92.02
2023-01-27T02:55:57.921Z,92.17
2023-01-27T02:57:29.760Z,92.01
2023-01-27T02:59:01.594Z,91.96
2023-01-27T03:00:33.484Z,92.03
2023-01-27T03:02:05.431Z,91.93
2023-01-27T03:03:44.431Z,91.88
2023-01-27T03:05:16.704Z,91.98
2023-01-27T03:06:48.835Z,91.97
2023-01-27T03:08:20.933Z,92.08
2023-01-27T03:09:52.850Z,92.08
2023-01-27T03:11:43.335Z,92.13
2023-01-27T03:13:15.234Z,91.98
2023-01-27T03:15:09.277Z,92.11
2023-01-27T03:16:59.621Z,92.00
2023-01-27T03:18:35.059Z,92.02
2023-01-27T03:20:07.097Z,92.08
2023-01-27T03:21:38.997Z,91.88
2023-01-27T03:23:11.104Z,91.72
2023-01-27T03:24:42.992Z,91.73
2023-01-27T03:26:14.999Z,91.63
2023-01-27T03:27:46.928Z,91.85
2023-01-27T03:29:37.264Z,91.84
2023-01-27T03:31:10.008Z,91.97
2023-01-27T03:32:54.766Z,91.88
2023-01-27T03:34:26.791Z,91.72
2023-01-27T03:36:17.561Z,91.61
2023-01-27T03:38:07.893Z,91.61
2023-01-27T03:39:58.135Z,91.54
2023-01-27T03:41:48.972Z,91.61
2023-01-27T03:43:39.489Z,91.59
2023-01-27T03:45:29.689Z,91.72
2023-01-27T03:47:01.734Z,91.77
2023-01-27T03:48:33.738Z,91.75
2023-01-27T03:50:11.498Z,92.01
2023-01-27T03:51:43.358Z,91.92
2023-01-27T03:53:15.280Z,92.09
2023-01-27T03:54:47.134Z,91.99
2023-01-27T03:56:19.875Z,92.22
2023-01-27T03:57:51.684Z,92.45
2023-01-27T03:59:23.473Z,92.26
2023-01-27T04:00:59.398Z,92.56
2023-01-27T04:02:52.564Z,92.37
2023-01-27T04:04:43.013Z,92.27
2023-01-27T04:06:37.256Z,92.36
2023-01-27T04:08:09.071Z,92.26
2023-01-27T04:09:41.169Z,92.21
2023-01-27T04:11:31.983Z,92.52
2023-01-27T04:13:06.108Z,92.34
2023-01-27T04:14:38.927Z,92.35
2023-01-27T04:16:10.812Z,92.18
2023-01-27T04:17:45.632Z,92.21
2023-01-27T04:19:17.820Z,92.04
2023-01-27T04:20:49.764Z,92.25
2023-01-27T04:22:21.680Z,92.20
2023-01-27T04:23:54.179Z,92.12
2023-01-27T04:25:26.134Z,92.27
2023-01-27T04:26:59.023Z,92.23
2023-01-27T04:28:43.891Z,92.16
2023-01-27T04:30:16.776Z,92.02
2023-01-27T04:31:48.629Z,92.05
2023-01-27T04:33:20.515Z,92.06
2023-01-27T04:34:52.293Z,92.01
2023-01-27T04:36:24.178Z,91.86
2023-01-27T04:37:55.966Z,91.82
2023-01-27T04:39:27.878Z,91.84
2023-01-27T04:40:59.696Z,91.66
2023-01-27T04:42:31.671Z,91.80
2023-01-27T04:44:04.164Z,91.76
2023-01-27T04:45:36.009Z,91.72
2023-01-27T04:47:07.836Z,91.44
2023-01-27T04:48:39.705Z,91.61
2023-01-27T04:50:11.771Z,91.53
2023-01-27T04:51:46.176Z,91.62
2023-01-27T04:53:18.147Z,91.42
2023-01-27T04:54:49.970Z,91.59
2023-01-27T04:56:22.895Z,91.37
2023-01-27T04:57:54.841Z,91.39
2023-01-27T04:59:26.876Z,91.14
2023-01-27T05:00:58.752Z,91.04
2023-01-27T05:02:30.729Z,91.20
2023-01-27T05:04:02.904Z,90.96
2023-01-27T05:05:36.839Z,90.97
2023-01-27T05:07:09.151Z,91.06
2023-01-27T05:08:41.033Z,90.97
2023-01-27T05:10:12.977Z,90.96
2023-01-27T05:11:44.938Z,91.08
2023-01-27T05:13:16.835Z,91.24
2023-01-27T05:14:48.655Z,91.32
2023-01-27T05:16:22.052Z,91.38
2023-01-27T05:17:53.902Z,91.19
2023-01-27T05:19:27.213Z,91.26
2023-01-27T05:22:32.711Z,91.29
2023-01-27T05:24:04.705Z,91.54
2023-01-27T05:25:36.515Z,91.60
2023-01-27T05:27:08.339Z,91.63
2023-01-27T05:28:41.603Z,91.77
2023-01-27T05:30:13.589Z,91.68
2023-01-27T05:31:45.567Z,91.69
2023-01-27T05:33:17.435Z,91.60
2023-01-27T05:34:49.230Z,91.36
2023-01-27T05:36:22.182Z,91.36
2023-01-27T05:37:53.938Z,91.45
2023-01-27T05:39:25.805Z,91.55
2023-01-27T05:41:02.391Z,91.44
2023-01-27T05:42:34.309Z,91.23
2023-01-27T05:44:06.726Z,91.28
2023-01-27T05:45:41.330Z,91.25
2023-01-27T05:47:13.151Z,91.40
2023-01-27T05:48:49.476Z,91.52
2023-01-27T05:50:21.510Z,91.53
2023-01-27T05:51:53.346Z,91.56
2023-01-27T05:53:25.237Z,91.73
2023-01-27T05:54:57.181Z,91.74
2023-01-27T05:58:08.099Z,91.69
2023-01-27T05:59:39.904Z,91.84
2023-01-27T06:01:13.540Z,91.76
2023-01-27T06:02:45.627Z,91.77
2023-01-27T06:04:17.516Z,91.76
2023-01-27T06:05:50.094Z,91.73
2023-01-27T06:07:21.998Z,91.70
2023-01-27T06:08:53.884Z,91.79
2023-01-27T06:10:25.710Z,91.76
2023-01-27T06:11:57.717Z,91.69
2023-01-27T06:13:29.776Z,91.50
2023-01-27T06:15:01.683Z,91.31
2023-01-27T06:16:33.517Z,91.23
2023-01-27T06:18:05.588Z,90.95
2023-01-27T06:19:37.415Z,90.76
2023-01-27T06:21:09.980Z,90.97
2023-01-27T06:22:41.788Z,90.74
2023-01-27T06:24:13.871Z,90.76
2023-01-27T06:25:46.758Z,90.62
2023-01-27T06:27:18.580Z,90.61
2023-01-27T06:28:50.412Z,90.47
2023-01-27T06:30:22.961Z,90.35
2023-01-27T06:31:54.897Z,90.29
2023-01-27T06:33:26.769Z,90.42
2023-01-27T06:34:58.809Z,90.38
2023-01-27T06:36:30.627Z,90.23
2023-01-27T06:38:03.377Z,90.38
2023-01-27T06:39:35.324Z,90.36
2023-01-27T06:41:07.348Z,90.47
2023-01-27T06:42:44.069Z,90.61
2023-01-27T06:44:16.014Z,90.68
2023-01-27T06:45:51.185Z,90.46
2023-01-27T06:47:23.235Z,90.36
2023-01-27T06:48:55.151Z,90.25
2023-01-27T06:50:28.059Z,90.37
2023-01-27T06:51:59.941Z,90.27
2023-01-27T06:53:32.902Z,90.21
2023-01-27T06:55:05.337Z,90.22
2023-01-27T06:56:37.470Z,90.20
2023-01-27T06:58:09.965Z,90.19
2023-01-27T06:59:42.242Z,89.90
2023-01-27T07:01:14.173Z,89.93
2023-01-27T07:02:46.178Z,90.00
2023-01-27T07:04:18.132Z,90.10
2023-01-27T07:05:50.231Z,90.08
2023-01-27T07:07:22.210Z,90.14
2023-01-27T07:08:55.572Z,90.01
2023-01-27T07:10:30.000Z,90.08
2023-01-27T07:12:01.973Z,90.19
2023-01-27T07:13:33.915Z,89.94
2023-01-27T07:15:06.410Z,90.03
2023-01-27T07:16:38.306Z,89.97
2023-01-27T07:18:10.721Z,89.93
2023-01-27T07:19:42.690Z,89.99
2023-01-27T07:21:14.634Z,90.05
2023-01-27T07:22:46.635Z,89.83
2023-01-27T07:24:19.613Z,89.89
2023-01-27T07:25:51.585Z,89.71
2023-01-27T07:27:24.094Z,89.95
2023-01-27T07:28:56.584Z,90.15
2023-01-27T07:30:28.722Z,90.25
2023-01-27T07:32:00.694Z,90.39
2023-01-27T07:33:32.657Z,90.37
2023-01-27T07:35:04.749Z,90.52
2023-01-27T07:36:36.634Z,90.54
2023-01-27T07:38:08.801Z,90.68
2023-01-27T07:39:40.861Z,90.87
2023-01-27T07:41:12.941Z,90.79
2023-01-27T07:42:45.107Z,90.72
2023-01-27T07:44:17.333Z,90.70
2023-01-27T07:45:49.279Z,90.78
2023-01-27T07:47:21.232Z,90.76
2023-01-27T07:48:53.112Z,90.80
2023-01-27T07:50:24.990Z,90.65
2023-01-27T07:51:56.889Z,90.57
2023-01-27T07:53:28.921Z,90.46
2023-01-27T07:55:00.755Z,90.39
2023-01-27T07:56:32.672Z,90.41
2023-01-27T07:58:04.593Z,90.64
2023-01-27T07:59:37.088Z,90.64
2023-01-27T08:01:10.196Z,90.75
2023-01-27T08:02:42.088Z,90.91
2023-01-27T08:04:13.954Z,90.86
2023-01-27T08:05:45.857Z,90.80
2023-01-27T08:07:17.949Z,90.65
2023-01-27T08:08:49.937Z,90.80
2023-01-27T08:10:21.879Z,90.77
2023-01-27T08:11:53.722Z,90.66
2023-01-27T08:13:25.640Z,90.76
2023-01-27T08:14:57.508Z,90.68
2023-01-27T08:16:29.409Z,90.78
2023-01-27T08:18:02.654Z,91.06
2023-01-27T08:19:34.569Z,91.03
2023-01-27T08:21:07.303Z,91.03
2023-01-27T08:22:39.197Z,90.79
2023-01-27T08:24:11.982Z,90.68
2023-01-27T08:25:48.853Z,90.74
2023-01-27T08:27:20.757Z,90.42
2023-01-27T08:28:52.600Z,90.72
2023-01-27T08:30:25.028Z,90.54
2023-01-27T08:31:56.945Z,90.37
2023-01-27T08:33:28.973Z,90.56
2023-01-27T08:35:00.826Z,90.66
2023-01-27T08:36:32.850Z,90.59
2023-01-27T08:38:04.845Z,90.70
2023-01-27T08:39:36.757Z,90.69
2023-01-27T08:41:10.099Z,90.69
2023-01-27T08:42:41.988Z,90.61
2023-01-27T08:44:13.983Z,90.73
2023-01-27T08:45:47.177Z,90.87
2023-01-27T08:47:19.232Z,91.02
2023-01-27T08:48:52.082Z,90.89
2023-01-27T08:50:23.931Z,90.63
2023-01-27T08:51:55.778Z,90.67
2023-01-27T08:53:27.916Z,90.67
2023-01-27T08:55:00.122Z,90.63
2023-01-27T08:56:31.969Z,90.82
2023-01-27T08:58:03.772Z,90.61
2023-01-27T08:59:35.605Z,90.86
2023-01-27T09:01:07.876Z,90.79
2023-01-27T09:02:40.064Z,90.89
2023-01-27T09:04:12.005Z,90.93
2023-01-27T09:05:44.012Z,90.92
2023-01-27T09:07:15.882Z,90.68
2023-01-27T09:09:10.720Z,90.76
2023-01-27T09:10:43.226Z,90.91
2023-01-27T09:12:15.141Z,90.93
2023-01-27T09:13:50.203Z,91.13
2023-01-27T09:15:22.090Z,91.05
2023-01-27T09:16:53.919Z,91.19
2023-01-27T09:18:25.751Z,91.29
2023-01-27T09:19:57.609Z,91.21
2023-01-27T09:21:29.981Z,91.45
2023-01-27T09:23:02.148Z,91.41
2023-01-27T09:24:34.277Z,91.38
2023-01-27T09:26:06.226Z,91.39
2023-01-27T09:27:39.773Z,91.43
2023-01-27T09:29:12.122Z,91.40
2023-01-27T09:30:47.259Z,91.66
2023-01-27T09:32:19.166Z,91.29
2023-01-27T09:33:50.996Z,91.35
2023-01-27T09:35:22.808Z,91.19
2023-01-27T09:36:59.023Z,91.02
2023-01-27T09:38:32.615Z,90.91
2023-01-27T09:40:04.816Z,90.73
2023-01-27T09:41:40.903Z,90.63
2023-01-27T09:43:15.956Z,90.47
2023-01-27T09:45:20.252Z,90.31
2023-01-27T09:47:10.561Z,90.12
2023-01-27T09:48:56.153Z,89.79
2023-01-27T09:50:34.625Z,89.64
2023-01-27T09:52:16.890Z,89.55
2023-01-27T09:53:54.886Z,89.77
2023-01-27T09:55:41.960Z,89.70
2023-01-27T09:57:19.040Z,89.59
2023-01-27T09:59:09.754Z,89.63
2023-01-27T10:00:54.807Z,89.99
2023-01-27T10:02:32.748Z,89.90
2023-01-27T10:04:16.767Z,89.95
2023-01-27T10:05:48.728Z,90.23
2023-01-27T10:07:39.427Z,90.02
2023-01-27T10:09:11.466Z,90.30
2023-01-27T10:10:46.728Z,90.18
2023-01-27T10:12:18.569Z,90.38
2023-01-27T10:15:48.981Z,90.34
2023-01-27T10:17:24.562Z,90.05
2023-01-27T10:19:02.141Z,89.54
2023-01-27T10:20:33.943Z,89.46
2023-01-27T10:22:25.383Z,89.39
2023-01-27T10:23:57.364Z,89.64
2023-01-27T10:25:48.095Z,89.38
2023-01-27T10:27:22.160Z,89.54
2023-01-27T10:28:57.403Z,89.75
2023-01-27T10:30:32.245Z,89.73
2023-01-27T10:32:24.629Z,89.64
2023-01-27T10:33:58.677Z,89.55
2023-01-27T10:35:32.635Z,89.44
2023-01-27T10:37:07.285Z,89.25
2023-01-27T10:39:02.114Z,89.42
2023-01-27T10:40:36.772Z,89.46
2023-01-27T10:42:11.459Z,89.33
2023-01-27T10:43:50.167Z,88.98
2023-01-27T10:45:25.395Z,89.04
2023-01-27T10:46:57.267Z,88.97
2023-01-27T10:48:32.190Z,89.13
2023-01-27T10:50:11.880Z,89.06
2023-01-27T10:51:48.183Z,88.93
2023-01-27T10:53:26.391Z,88.72
2023-01-27T10:55:01.690Z,88.84
2023-01-27T10:56:41.891Z,89.05
2023-01-27T10:58:21.777Z,88.73
2023-01-27T11:00:37.915Z,88.59
2023-01-27T11:02:07.010Z,88.49
2023-01-27T11:03:55.328Z,88.50
2023-01-27T11:05:49.819Z,88.21
2023-01-27T11:07:22.159Z,88.21
2023-01-27T11:08:59.842Z,88.24
2023-01-27T11:10:34.014Z,88.34
2023-01-27T11:12:06.796Z,88.42
2023-01-27T11:13:38.664Z,88.38
2023-01-27T11:15:29.052Z,87.94
2023-01-27T11:17:03.717Z,88.14
2023-01-27T11:18:36.668Z,88.15
2023-01-27T11:20:23.823Z,87.98
2023-01-27T11:22:07.140Z,87.98
2023-01-27T11:23:40.918Z,87.87
2023-01-27T11:25:24.368Z,87.96
2023-01-27T11:26:58.196Z,88.06
2023-01-27T11:28:48.359Z,88.07
2023-01-27T11:30:25.133Z,88.14
2023-01-27T11:32:06.446Z,88.16
2023-01-27T11:33:44.561Z,88.36
2023-01-27T11:35:16.760Z,88.50
2023-01-27T11:36:50.190Z,88.75
2023-01-27T11:38:22.651Z,88.80
2023-01-27T11:39:55.668Z,88.55
2023-01-27T11:41:32.324Z,88.48
2023-01-27T11:43:05.039Z,88.60
2023-01-27T11:44:36.922Z,88.38
2023-01-27T11:46:11.420Z,88.59
2023-01-27T11:47:43.405Z,88.56
2023-01-27T11:49:26.377Z,88.45
2023-01-27T11:50:58.181Z,88.24
2023-01-27T11:52:30.192Z,88.13
2023-01-27T11:54:12.359Z,87.79
2023-01-27T11:55:46.655Z,88.16
2023-01-27T11:57:22.650Z,88.44
2023-01-27T11:58:57.532Z,88.34
2023-01-27T12:00:31.817Z,88.28
2023-01-27T12:02:09.291Z,88.35
2023-01-27T12:04:08.230Z,88.11
2023-01-27T12:05:44.175Z,87.70
2023-01-27T12:07:28.504Z,87.76
2023-01-27T12:09:00.324Z,87.86
2023-01-27T12:10:35.633Z,88.02
2023-01-27T12:12:27.861Z,87.96
2023-01-27T12:14:00.695Z,87.88
2023-01-27T12:15:33.167Z,87.79
2023-01-27T12:17:05.057Z,87.69
2023-01-27T12:18:37.187Z,87.70
2023-01-27T12:20:20.892Z,87.90
2023-01-27T12:21:54.009Z,88.19
2023-01-27T12:23:30.403Z,87.92
2023-01-27T12:25:03.836Z,87.84
2023-01-27T12:26:37.704Z,88.22
2023-01-27T12:28:15.112Z,88.30
2023-01-27T12:29:51.517Z,88.23
2023-01-27T12:31:25.130Z,88.17
2023-01-27T12:32:57.055Z,88.07
2023-01-27T12:34:31.556Z,88.05
2023-01-27T12:36:06.266Z,88.16
2023-01-27T12:37:38.281Z,88.41
2023-01-27T12:39:30.421Z,88.29
2023-01-27T12:42:36.684Z,88.69
2023-01-27T12:44:08.520Z,88.47
2023-01-27T12:45:41.161Z,88.42
2023-01-27T12:47:24.679Z,88.30
2023-01-27T12:49:08.388Z,88.20
2023-01-27T12:50:44.292Z,88.47
2023-01-27T12:52:18.799Z,88.27
2023-01-27T12:53:50.985Z,88.47
2023-01-27T12:55:29.929Z,88.45
2023-01-27T12:57:05.606Z,88.32
2023-01-27T12:58:37.612Z,88.19
2023-01-27T13:00:13.932Z,87.95
2023-01-27T13:01:57.242Z,87.88
2023-01-27T13:03:29.297Z,87.92
2023-01-27T13:05:02.543Z,87.94
2023-01-27T13:06:36.837Z,88.12
2023-01-27T13:08:13.499Z,88.23
2023-01-27T13:10:02.181Z,88.08
2023-01-27T13:11:37.810Z,88.00
2023-01-27T13:13:15.224Z,87.90
2023-01-27T13:14:49.902Z,88.13
2023-01-27T13:16:28.546Z,88.05
2023-01-27T13:18:00.743Z,88.03
2023-01-27T13:19:42.156Z,88.11
2023-01-27T13:21:15.524Z,87.79
2023-01-27T13:22:48.423Z,87.99
2023-01-27T13:24:33.140Z,87.62
2023-01-27T13:27:38.734Z,87.51
2023-01-27T13:29:10.666Z,87.58
2023-01-27T13:30:42.670Z,87.59
2023-01-27T13:32:17.275Z,87.45
2023-01-27T13:33:51.214Z,87.70
2023-01-27T13:35:25.396Z,87.82
2023-01-27T13:37:01.497Z,87.85
2023-01-27T13:38:39.067Z,87.52
2023-01-27T13:40:12.170Z,87.58
2023-01-27T13:41:50.272Z,87.58
2023-01-27T13:43:41.820Z,87.61
2023-01-27T13:45:16.828Z,87.91
2023-01-27T13:46:48.961Z,87.75
2023-01-27T13:48:30.373Z,87.67
2023-01-27T13:50:08.185Z,87.91
2023-01-27T13:51:40.126Z,87.95
2023-01-27T13:53:12.730Z,87.80
2023-01-27T13:54:44.711Z,87.84
2023-01-27T13:56:26.348Z,88.03
2023-01-27T13:58:01.456Z,87.97
2023-01-27T13:59:40.478Z,88.17
2023-01-27T14:01:12.374Z,88.33
2023-01-27T14:03:07.794Z,88.04
2023-01-27T14:04:39.854Z,88.41
2023-01-27T14:06:14.969Z,88.35
2023-01-27T14:07:54.598Z,88.54
2023-01-27T14:09:32.749Z,88.69
2023-01-27T14:11:09.997Z,88.86
2023-01-27T14:13:04.052Z,88.97
2023-01-27T14:14:56.051Z,88.90
2023-01-27T14:16:47.361Z,89.13
2023-01-27T14:18:19.283Z,89.15
2023-01-27T14:20:27.262Z,89.18
2023-01-27T14:22:14.570Z,89.15
2023-01-27T14:23:46.503Z,89.30
2023-01-27T14:25:26.167Z,89.52
2023-01-27T14:27:02.418Z,89.34
2023-01-27T14:28:37.677Z,89.45
2023-01-27T14:30:13.059Z,89.34
2023-01-27T14:31:51.804Z,89.27
2023-01-27T14:33:43.060Z,89.27
2023-01-27T14:35:18.987Z,89.47
2023-01-27T14:37:03.300Z,89.62
2023-01-27T14:38:39.297Z,89.73
2023-01-27T14:40:14.436Z,89.66
2023-01-27T14:41:47.913Z,89.58
2023-01-27T14:43:19.845Z,89.63
2023-01-27T14:45:02.694Z,89.63
2023-01-27T14:46:43.798Z,89.43
2023-01-27T14:48:34.052Z,89.55
2023-01-27T14:50:24.356Z,89.38
2023-01-27T14:51:58.345Z,89.67
2023-01-27T14:53:39.377Z,89.67
2023-01-27T14:57:05.710Z,89.79
2023-01-27T14:58:37.950Z,89.68
2023-01-27T15:00:18.804Z,89.74
2023-01-27T15:01:58.651Z,89.70
2023-01-27T15:03:38.010Z,89.65
2023-01-27T15:05:19.000Z,89.76
2023-01-27T15:07:20.244Z,89.83
2023-01-27T15:08:52.063Z,89.84
2023-01-27T15:10:27.981Z,89.68
2023-01-27T15:11:59.966Z,90.00
2023-01-27T15:13:50.115Z,90.13
2023-01-27T15:15:27.905Z,89.87
2023-01-27T15:17:15.033Z,90.08
2023-01-27T15:18:52.918Z,90.01
2023-01-27T15:20:33.974Z,89.96
2023-01-27T15:22:05.951Z,90.22
2023-01-27T15:23:40.840Z,90.40
2023-01-27T15:25:12.808Z,90.31
2023-01-27T15:26:45.105Z,90.49
2023-01-27T15:28:17.694Z,90.41
2023-01-27T15:29:49.443Z,90.38
2023-01-27T15:31:23.268Z,90.25
2023-01-27T15:32:55.430Z,90.07
2023-01-27T15:34:28.973Z,90.21
2023-01-27T15:36:33.083Z,90.21
2023-01-27T15:38:10.777Z,90.05
2023-01-27T15:40:04.379Z,90.08
2023-01-27T15:41:36.925Z,89.96
2023-01-27T15:43:12.626Z,89.90
2023-01-27T15:45:00.227Z,90.13
2023-01-27T15:46:32.917Z,90.27
2023-01-27T15:48:10.978Z,90.17
2023-01-27T15:49:47.543Z,90.27
2023-01-27T15:51:19.863Z,90.52
2023-01-27T15:52:51.708Z,90.47
2023-01-27T15:54:27.065Z,90.62
2023-01-27T15:55:59.143Z,90.80
2023-01-27T15:57:39.872Z,90.65
2023-01-27T15:59:15.376Z,90.64
2023-01-27T16:00:51.683Z,90.84
2023-01-27T16:02:27.723Z,90.94
2023-01-27T16:04:20.163Z,90.84
2023-01-27T16:05:52.597Z,91.09
2023-01-27T16:07:29.029Z,91.01
2023-01-27T16:09:01.840Z,91.16
2023-01-27T16:10:34.335Z,90.99
2023-01-27T16:12:06.475Z,91.07
2023-01-27T16:13:38.353Z,91.10
2023-01-27T16:15:16.229Z,91.05
2023-01-27T16:16:51.083Z,91.17
2023-01-27T16:18:24.422Z,91.01
2023-01-27T16:20:16.616Z,91.26
2023-01-27T16:21:54.385Z,91.32
2023-01-27T16:23:44.818Z,91.14
2023-01-27T16:25:23.209Z,91.27
2023-01-27T16:26:57.141Z,91.43
2023-01-27T16:28:29.568Z,91.38
2023-01-27T16:30:18.829Z,91.21
2023-01-27T16:31:51.333Z,91.24
2023-01-27T16:33:25.693Z,91.29
2023-01-27T16:35:00.969Z,91.11
2023-01-27T16:36:36.455Z,91.22
2023-01-27T16:38:14.293Z,91.17
2023-01-27T16:39:47.696Z,91.15
2023-01-27T16:41:24.707Z,91.32
2023-01-27T16:42:57.941Z,91.35
2023-01-27T16:44:39.718Z,91.40
2023-01-27T16:46:25.683Z,91.37
2023-01-27T16:48:15.638Z,91.25
2023-01-27T16:49:49.146Z,91.28
2023-01-27T16:51:21.637Z,91.15
2023-01-27T16:52:53.543Z,91.34
2023-01-27T16:54:27.126Z,91.03
2023-01-27T16:55:59.542Z,91.13
2023-01-27T16:57:35.415Z,91.10
2023-01-27T16:59:08.329Z,91.07
2023-01-27T17:00:40.377Z,91.00
2023-01-27T17:02:18.342Z,90.83
2023-01-27T17:03:50.387Z,91.04
2023-01-27T17:05:22.580Z,90.92
2023-01-27T17:06:57.611Z,90.83
2023-01-27T17:08:35.970Z,90.89
2023-01-27T17:10:18.907Z,91.10
2023-01-27T17:11:56.294Z,91.02
2023-01-27T17:13:29.446Z,91.02
2023-01-27T17:15:02.664Z,91.00
2023-01-27T17:16:42.012Z,90.96
2023-01-27T17:18:14.722Z,91.14
2023-01-27T17:19:50.362Z,90.96
2023-01-27T17:21:32.435Z,91.07
2023-01-27T17:23:05.812Z,91.13
2023-01-27T17:24:38.907Z,91.19
2023-01-27T17:26:17.034Z,91.27
2023-01-27T17:27:48.929Z,91.16
2023-01-27T17:29:21.891Z,91.19
2023-01-27T17:31:00.208Z,91.02
2023-01-27T17:32:33.232Z,91.05
2023-01-27T17:35:44.556Z,90.76
2023-01-27T17:37:23.101Z,90.86
2023-01-27T17:38:55.464Z,90.77
2023-01-27T18:04:50.283Z,90.89
2023-01-27T18:06:22.790Z,90.95
2023-01-27T18:07:55.046Z,90.94
2023-01-27T18:09:27.439Z,90.83
2023-01-27T18:11:17.511Z,90.87
2023-01-27T18:12:49.441Z,90.80
2023-01-27T18:14:21.762Z,90.91
2023-01-27T18:16:00.724Z,90.92
2023-01-27T18:17:32.693Z,90.79
2023-01-27T18:19:08.904Z,90.78
2023-01-27T18:20:40.725Z,90.94
2023-01-27T18:22:12.768Z,90.83
2023-01-27T18:23:46.860Z,90.95
2023-01-27T18:25:18.811Z,90.87
2023-01-27T18:26:50.774Z,90.76
2023-01-27T18:28:22.940Z,90.84
2023-01-27T18:29:56.504Z,90.94
2023-01-27T18:31:30.053Z,90.87
2023-01-27T18:34:44.815Z,90.84
2023-01-27T18:36:20.924Z,90.89
2023-01-27T18:38:00.264Z,90.81
2023-01-27T18:39:36.462Z,90.90
2023-01-27T18:41:12.032Z,90.85
2023-01-27T18:42:44.905Z,90.83
2023-01-27T18:44:19.272Z,90.96
2023-01-27T18:45:51.170Z,90.92
2023-01-27T18:47:35.009Z,91.09
2023-01-27T18:49:10.725Z,90.95
2023-01-27T18:50:46.419Z,90.84
2023-01-27T18:52:18.353Z,90.89
2023-01-27T18:53:50.375Z,90.87
2023-01-27T18:55:26.814Z,90.91
2023-01-27T18:56:58.683Z,90.92
2023-01-27T18:58:30.592Z,90.93
2023-01-27T19:00:02.494Z,90.99
2023-01-27T19:01:36.093Z,90.82
2023-01-27T19:03:11.372Z,90.82
2023-01-27T19:04:43.593Z,91.03
2023-01-27T19:06:16.935Z,90.94
2023-01-27T19:07:49.171Z,90.98
2023-01-27T19:09:20.971Z,91.00
2023-01-27T19:10:53.115Z,90.96
2023-01-27T19:12:24.916Z,91.17
2023-01-27T19:13:56.730Z,91.19
2023-01-27T19:15:29.388Z,91.15
2023-01-27T19:17:01.519Z,91.25
2023-01-27T19:18:35.078Z,91.02
2023-01-27T19:20:13.459Z,91.14
2023-01-27T19:21:45.871Z,90.96
2023-01-27T19:23:18.475Z,91.18
2023-01-27T19:24:50.791Z,91.13
2023-01-27T19:26:23.614Z,91.09
2023-01-27T19:27:56.354Z,90.97
2023-01-27T19:29:28.208Z,90.67
2023-01-27T19:31:00.544Z,90.89
2023-01-27T19:32:32.397Z,90.68
2023-01-27T19:34:04.431Z,90.51
2023-01-27T19:35:37.088Z,90.55
2023-01-27T19:37:18.910Z,90.71
2023-01-27T19:38:55.158Z,90.47
2023-01-27T19:40:28.676Z,90.57
2023-01-27T19:42:00.583Z,90.67
2023-01-27T19:43:32.573Z,90.53
2023-01-27T19:45:04.490Z,90.33
2023-01-27T19:46:36.448Z,90.54
2023-01-27T19:48:15.807Z,90.56
2023-01-27T19:49:47.669Z,90.49
2023-01-27T19:51:19.794Z,90.53
2023-01-27T19:52:51.741Z,90.65
2023-01-27T19:54:24.162Z,90.55
2023-01-27T19:55:58.138Z,90.64
2023-01-27T19:57:30.934Z,90.59
2023-01-27T19:59:02.886Z,90.79
2023-01-27T20:00:36.832Z,90.69
2023-01-27T20:02:10.390Z,90.72
2023-01-27T20:03:42.360Z,90.76
2023-01-27T20:05:14.825Z,90.63
2023-01-27T20:06:46.919Z,90.68
2023-01-27T20:08:19.700Z,90.49
2023-01-27T20:09:51.758Z,90.73
2023-01-27T20:11:31.217Z,90.76
2023-01-27T20:13:04.579Z,90.83
2023-01-27T20:14:36.579Z,90.77
2023-01-27T20:16:08.614Z,90.88
2023-01-27T20:17:40.490Z,90.85
2023-01-27T20:19:15.284Z,91.00
2023-01-27T20:20:47.510Z,90.86
2023-01-27T20:22:19.379Z,91.01
2023-01-27T20:23:51.321Z,90.92
2023-01-27T20:25:24.073Z,91.07
2023-01-27T20:26:56.756Z,91.05
2023-01-27T20:28:28.826Z,90.79
2023-01-27T20:30:00.681Z,90.73
2023-01-27T20:31:32.514Z,90.58
2023-01-27T20:33:04.638Z,90.73
2023-01-27T20:34:37.336Z,90.83
2023-01-27T20:36:10.074Z,90.85
2023-01-27T20:37:42.473Z,90.65
2023-01-27T20:39:14.440Z,90.57
2023-01-27T20:40:46.274Z,90.79
2023-01-27T20:43:58.606Z,90.87
2023-01-27T20:45:30.507Z,90.97
2023-01-27T20:47:02.302Z,90.95
2023-01-27T20:48:34.193Z,91.17
2023-01-27T20:50:07.032Z,91.07
2023-01-27T20:51:38.912Z,91.38
2023-01-27T20:53:10.775Z,91.19
2023-01-27T20:54:42.754Z,91.30
2023-01-27T20:56:16.294Z,91.11
2023-01-27T20:57:48.370Z,91.10
2023-01-27T20:59:20.299Z,91.11
2023-01-27T21:00:52.197Z,91.15
2023-01-27T21:02:24.107Z,91.09
2023-01-27T21:03:55.989Z,91.17
2023-01-27T21:05:27.988Z,91.33
2023-01-27T21:06:59.886Z,91.54
2023-01-27T21:08:31.893Z,91.56
2023-01-27T21:10:04.178Z,91.67